Koltsovo Airport
USSS : now visible

Airfield :











YOU CAN JOIN US ON...

 
LOGIN :

Register | Disclaimer

   EN    FR    IT 

 









Legend :    VFR   Marginal VFR   IFR   Intensive IFR   Very Intensive IFR
Visi :
Ceiling :
>= 8 km
>= 3000ft
5 to 8 km
1000 to 3000 ft
1500m to 5 km
500 to 1000 ft
800 to 1500m
200 to 500 ft
< 800m
< 200 ft
Symbols :   Thunderstorms  Fog  Heavy snow  Heavy precipitations  Wind > 20 kt






- Airport Elevation : 764 ft
- IATA code : SVX


USSS - Koltsovo

CURRENT METAR :
  • 090100Z 19003MPS CAVOK M05/M12 Q1012 R26R/110060 NOSIG RMK QFE738/0984

EXPIRED METARs :
  • 090030Z 19003MPS CAVOK M05/M12 Q1011 R26R/110060 NOSIG RMK QFE738/0984
  • 090000Z 18003MPS CAVOK M05/M12 Q1011 R26R/110060 NOSIG RMK QFE738/0984
  • 082330Z 17003MPS CAVOK M06/M13 Q1011 R26R/110060 NOSIG RMK QFE738/0984
  • 082300Z 17003MPS CAVOK M06/M13 Q1011 R26R/110060 NOSIG RMK QFE737/0983
  • 082230Z 18003MPS CAVOK M06/M13 Q1011 R26R/110060 NOSIG RMK QFE737/0983

TAF TAF USSS
Valid from the 09 at 00:00 until the 10 at 00:00 UTC


082248Z 0900/0924 23003G12MPS 9999 SCT016
TEMPO 0905/0915 -RASN



MET'MAP, your aeronautical weather chart ! - Copyright ORBIFLY December 2007 - Disclaimer

ORBIFLY MET'MAP TEAM :

Programming & Development : Alexandra Zaïnal
Concept & original design : Baudouin d'Aumeries
Assistance for programming : Marc-Olivier Méhu
Technical & hardware support : Manuel Goepfert

Contact : metmap@orbifly.com




SOURCES & CREDITS :

   NOAA       Earth
Advisory